createdAt,value
2024-05-09T00:00:39.058Z,80.41
2024-05-09T00:01:33.764Z,80.51
2024-05-09T00:02:32.702Z,80.67
2024-05-09T00:03:32.768Z,81.29
2024-05-09T00:04:32.759Z,82.70
2024-05-09T00:05:32.840Z,84.93
2024-05-09T00:06:32.714Z,83.94
2024-05-09T00:07:32.748Z,85.76
2024-05-09T00:08:32.744Z,84.64
2024-05-09T00:09:32.720Z,84.73
2024-05-09T00:10:37.194Z,85.16
2024-05-09T00:11:33.833Z,85.27
2024-05-09T00:12:32.775Z,85.61
2024-05-09T00:13:32.767Z,86.47
2024-05-09T00:14:32.853Z,87.45
2024-05-09T00:15:32.768Z,87.53
2024-05-09T00:16:32.770Z,87.98
2024-05-09T00:17:32.961Z,88.10
2024-05-09T00:18:32.915Z,87.82
2024-05-09T00:19:32.888Z,88.18
2024-05-09T00:20:38.042Z,87.58
2024-05-09T00:21:33.790Z,87.67
2024-05-09T00:22:32.807Z,87.30
2024-05-09T00:23:33.019Z,86.54
2024-05-09T00:24:32.789Z,86.12
2024-05-09T00:25:32.792Z,86.18
2024-05-09T00:26:32.875Z,84.56
2024-05-09T00:27:32.801Z,84.46
2024-05-09T00:28:32.790Z,82.96
2024-05-09T00:29:32.955Z,81.80
2024-05-09T00:30:35.488Z,80.66
2024-05-09T00:31:32.791Z,80.69
2024-05-09T00:32:33.063Z,80.72
2024-05-09T00:33:32.907Z,80.02
2024-05-09T00:34:32.822Z,79.04
2024-05-09T00:35:32.953Z,78.04
2024-05-09T00:36:32.833Z,78.46
2024-05-09T00:37:32.820Z,78.42
2024-05-09T00:38:32.905Z,78.29
2024-05-09T00:39:32.823Z,77.77
2024-05-09T00:40:38.926Z,79.15
2024-05-09T00:41:33.927Z,79.30
2024-05-09T00:42:32.830Z,79.54
2024-05-09T00:43:32.905Z,79.94
2024-05-09T00:44:32.857Z,80.88
2024-05-09T00:45:32.835Z,80.87
2024-05-09T00:46:32.825Z,81.72
2024-05-09T00:47:32.999Z,81.46
2024-05-09T00:48:32.981Z,81.15
2024-05-09T00:49:32.951Z,82.20
2024-05-09T00:50:36.492Z,81.47
2024-05-09T00:51:32.836Z,81.60
2024-05-09T00:52:32.830Z,81.77
2024-05-09T00:53:32.908Z,81.78
2024-05-09T00:54:32.830Z,82.19
2024-05-09T00:55:32.850Z,82.09
2024-05-09T00:56:32.859Z,81.98
2024-05-09T00:57:32.847Z,82.51
2024-05-09T00:58:32.858Z,83.28
2024-05-09T00:59:32.868Z,83.29
2024-05-09T01:00:38.693Z,84.94
2024-05-09T01:01:33.973Z,85.10
2024-05-09T01:02:32.961Z,85.56
2024-05-09T01:03:33.067Z,85.54
2024-05-09T01:04:32.860Z,85.51
2024-05-09T01:05:32.937Z,85.59
2024-05-09T01:06:32.850Z,84.47
2024-05-09T01:07:32.848Z,83.89
2024-05-09T01:08:32.911Z,82.33
2024-05-09T01:09:32.833Z,82.64
2024-05-09T01:10:35.111Z,81.15
2024-05-09T01:11:32.968Z,81.35
2024-05-09T01:12:32.913Z,81.66
2024-05-09T01:13:32.849Z,78.77
2024-05-09T01:14:32.866Z,78.95
2024-05-09T01:15:32.867Z,77.64
2024-05-09T01:16:32.842Z,77.22
2024-05-09T01:17:32.924Z,75.09
2024-05-09T01:18:32.914Z,73.45
2024-05-09T01:19:33.021Z,72.40
2024-05-09T01:20:40.916Z,70.83
2024-05-09T01:21:33.870Z,71.02
2024-05-09T01:22:32.847Z,71.55
2024-05-09T01:23:32.928Z,71.72
2024-05-09T01:24:32.848Z,72.48
2024-05-09T01:25:32.857Z,72.97
2024-05-09T01:26:32.925Z,72.87
2024-05-09T01:27:32.863Z,73.37
2024-05-09T01:28:32.892Z,74.23
2024-05-09T01:29:32.861Z,73.68
2024-05-09T01:30:35.804Z,75.00
2024-05-09T01:31:32.899Z,75.13
2024-05-09T01:32:32.974Z,75.74
2024-05-09T01:33:33.398Z,77.12
2024-05-09T01:34:32.875Z,79.07
2024-05-09T01:35:32.899Z,82.66
2024-05-09T01:36:32.875Z,84.94
2024-05-09T01:37:32.910Z,84.99
2024-05-09T01:38:33.076Z,86.65
2024-05-09T01:39:32.881Z,86.88
2024-05-09T01:40:37.560Z,85.86
2024-05-09T01:41:33.982Z,86.03
2024-05-09T01:42:32.878Z,86.51
2024-05-09T01:43:32.881Z,87.11
2024-05-09T01:44:32.941Z,88.01
2024-05-09T01:45:33.052Z,89.22
2024-05-09T01:46:32.932Z,90.07
2024-05-09T01:47:33.122Z,88.76
2024-05-09T01:48:32.943Z,88.59
2024-05-09T01:49:32.931Z,87.64
2024-05-09T01:50:38.981Z,87.46
2024-05-09T01:51:33.916Z,87.52
2024-05-09T01:52:32.930Z,87.71
2024-05-09T01:53:33.014Z,87.12
2024-05-09T01:54:32.935Z,87.62
2024-05-09T01:55:32.915Z,85.71
2024-05-09T01:56:33.079Z,84.87
2024-05-09T01:57:32.924Z,83.17
2024-05-09T01:58:32.970Z,84.06
2024-05-09T01:59:33.094Z,82.95
2024-05-09T02:00:38.996Z,79.88
2024-05-09T02:01:55.483Z,80.01
2024-05-09T02:02:34.019Z,80.06
2024-05-09T02:03:33.045Z,80.67
2024-05-09T02:04:32.967Z,81.65
2024-05-09T02:05:32.986Z,82.30
2024-05-09T02:06:32.952Z,84.02
2024-05-09T02:07:33.239Z,84.86
2024-05-09T02:08:33.122Z,85.83
2024-05-09T02:09:32.925Z,84.11
2024-05-09T02:10:33.561Z,83.62
2024-05-09T02:11:32.996Z,81.99
2024-05-09T02:12:33.101Z,78.83
2024-05-09T02:13:32.978Z,77.97
2024-05-09T02:14:32.963Z,79.98
2024-05-09T02:15:32.937Z,79.29
2024-05-09T02:16:32.954Z,78.82
2024-05-09T02:17:33.058Z,80.11
2024-05-09T02:18:33.055Z,80.44
2024-05-09T02:19:33.257Z,80.93
2024-05-09T02:20:36.367Z,80.09
2024-05-09T02:21:32.984Z,80.19
2024-05-09T02:22:32.993Z,80.16
2024-05-09T02:23:33.061Z,80.51
2024-05-09T02:24:32.979Z,80.51
2024-05-09T02:25:33.144Z,82.13
2024-05-09T02:26:32.991Z,81.50
2024-05-09T02:27:32.964Z,81.45
2024-05-09T02:28:32.959Z,83.19
2024-05-09T02:29:33.082Z,83.23
2024-05-09T02:30:39.103Z,82.74
2024-05-09T02:31:33.997Z,82.83
2024-05-09T02:32:33.162Z,83.00
2024-05-09T02:33:33.394Z,82.91
2024-05-09T02:34:33.076Z,81.20
2024-05-09T02:35:33.071Z,85.38
2024-05-09T02:36:32.994Z,86.90
2024-05-09T02:37:32.992Z,85.74
2024-05-09T02:38:33.098Z,85.11
2024-05-09T02:39:32.999Z,85.09
2024-05-09T02:40:37.194Z,85.98
2024-05-09T02:41:34.013Z,86.08
2024-05-09T02:42:33.005Z,86.34
2024-05-09T02:43:33.018Z,87.08
2024-05-09T02:44:33.029Z,86.14
2024-05-09T02:45:33.188Z,87.30
2024-05-09T02:46:33.028Z,88.11
2024-05-09T02:47:33.177Z,89.53
2024-05-09T02:48:33.193Z,87.52
2024-05-09T02:49:33.090Z,87.11
2024-05-09T02:50:38.068Z,86.00
2024-05-09T02:51:34.042Z,86.10
2024-05-09T02:52:33.031Z,86.12
2024-05-09T02:53:33.073Z,85.48
2024-05-09T02:54:33.028Z,81.23
2024-05-09T02:55:33.235Z,80.62
2024-05-09T02:56:33.096Z,81.22
2024-05-09T02:57:33.037Z,82.43
2024-05-09T02:58:33.015Z,83.09
2024-05-09T02:59:33.061Z,83.17
2024-05-09T03:00:38.966Z,84.49
2024-05-09T03:01:34.129Z,84.58
2024-05-09T03:02:33.205Z,84.91
2024-05-09T03:03:33.288Z,85.77
2024-05-09T03:04:33.160Z,87.83
2024-05-09T03:05:33.266Z,88.67
2024-05-09T03:06:33.051Z,89.82
2024-05-09T03:07:33.041Z,88.88
2024-05-09T03:08:33.143Z,90.32
2024-05-09T03:09:33.058Z,92.34
2024-05-09T03:10:36.380Z,93.70
2024-05-09T03:11:34.162Z,93.74
2024-05-09T03:12:34.065Z,94.08
2024-05-09T03:13:33.052Z,94.67
2024-05-09T03:14:33.106Z,96.62
2024-05-09T03:15:33.292Z,99.09
2024-05-09T03:16:33.085Z,99.86
2024-05-09T03:17:33.323Z,102.92
2024-05-09T03:18:33.159Z,103.69
2024-05-09T03:19:33.202Z,104.25
2024-05-09T03:20:35.415Z,105.24
2024-05-09T03:21:33.107Z,106.01
2024-05-09T03:22:33.092Z,105.58
2024-05-09T03:23:33.117Z,104.91
2024-05-09T03:24:33.104Z,104.71
2024-05-09T03:25:33.116Z,104.03
2024-05-09T03:26:33.116Z,103.01
2024-05-09T03:27:33.106Z,101.13
2024-05-09T03:28:33.116Z,99.84
2024-05-09T03:29:33.167Z,99.25
2024-05-09T03:30:40.511Z,100.63
2024-05-09T03:31:34.107Z,100.73
2024-05-09T03:32:33.256Z,101.19
2024-05-09T03:33:33.332Z,101.33
2024-05-09T03:34:33.127Z,101.79
2024-05-09T03:35:33.155Z,104.18
2024-05-09T03:36:33.108Z,103.02
2024-05-09T03:37:33.162Z,101.12
2024-05-09T03:38:33.228Z,102.73
2024-05-09T03:39:33.127Z,101.00
2024-05-09T03:40:33.130Z,100.27
2024-05-09T03:41:33.299Z,101.52
2024-05-09T03:42:33.140Z,100.96
2024-05-09T03:43:33.120Z,101.30
2024-05-09T03:44:33.233Z,100.73
2024-05-09T03:45:33.210Z,99.86
2024-05-09T03:46:33.225Z,100.92
2024-05-09T03:47:33.411Z,102.21
2024-05-09T03:48:33.350Z,99.79
2024-05-09T03:49:33.423Z,101.28
2024-05-09T03:50:35.642Z,102.02
2024-05-09T03:51:33.312Z,99.61
2024-05-09T03:52:33.349Z,101.10
2024-05-09T03:53:33.501Z,99.85
2024-05-09T03:54:33.349Z,99.04
2024-05-09T03:55:33.346Z,98.40
2024-05-09T03:56:33.352Z,97.50
2024-05-09T03:57:33.353Z,98.94
2024-05-09T03:58:33.334Z,101.49
2024-05-09T03:59:33.395Z,103.16
2024-05-09T04:00:38.104Z,102.17
2024-05-09T04:01:34.424Z,102.25
2024-05-09T04:02:33.437Z,102.15
2024-05-09T04:03:33.525Z,99.36
2024-05-09T04:04:33.451Z,97.43
2024-05-09T04:05:33.487Z,95.58
2024-05-09T04:06:33.362Z,95.56
2024-05-09T04:07:33.375Z,95.98
2024-05-09T04:08:33.510Z,94.79
2024-05-09T04:09:33.377Z,95.25
2024-05-09T04:10:34.911Z,96.04
2024-05-09T04:11:33.481Z,94.32
2024-05-09T04:12:33.451Z,94.44
2024-05-09T04:13:33.361Z,93.06
2024-05-09T04:14:33.428Z,93.07
2024-05-09T04:15:33.439Z,91.44
2024-05-09T04:16:33.369Z,92.39
2024-05-09T04:17:33.548Z,90.75
2024-05-09T04:18:33.660Z,89.16
2024-05-09T04:19:33.658Z,88.58
2024-05-09T04:20:38.677Z,87.99
2024-05-09T04:21:34.600Z,88.07
2024-05-09T04:22:33.604Z,88.12
2024-05-09T04:23:33.806Z,88.17
2024-05-09T04:24:33.604Z,87.42
2024-05-09T04:25:33.654Z,85.82
2024-05-09T04:26:33.689Z,84.83
2024-05-09T04:27:33.619Z,82.62
2024-05-09T04:28:33.622Z,79.99
2024-05-09T04:29:33.693Z,82.11
2024-05-09T04:30:38.278Z,79.31
2024-05-09T04:31:34.626Z,79.46
2024-05-09T04:32:33.732Z,80.17
2024-05-09T04:33:33.825Z,81.75
2024-05-09T04:34:33.793Z,84.44
2024-05-09T04:35:33.685Z,87.14
2024-05-09T04:36:33.638Z,85.00
2024-05-09T04:37:33.652Z,86.90
2024-05-09T04:38:33.789Z,88.79
2024-05-09T04:39:41.327Z,50.00
2024-05-09T04:40:41.376Z,50.00
2024-05-09T04:41:41.494Z,50.00
2024-05-09T04:42:41.514Z,50.00
2024-05-09T04:43:41.569Z,50.00
2024-05-09T04:44:41.603Z,52.12
2024-05-09T04:45:41.683Z,50.81
2024-05-09T04:46:41.738Z,53.11
2024-05-09T04:47:41.967Z,50.54
2024-05-09T04:48:41.975Z,51.92
2024-05-09T04:49:41.909Z,50.78
2024-05-09T04:50:42.024Z,51.60
2024-05-09T04:51:42.005Z,50.67
2024-05-09T04:52:42.057Z,51.22
2024-05-09T04:53:42.126Z,54.06
2024-05-09T04:54:42.158Z,54.39
2024-05-09T04:55:42.221Z,55.81
2024-05-09T04:56:42.339Z,52.15
2024-05-09T04:57:42.366Z,53.70
2024-05-09T04:58:42.432Z,53.05
2024-05-09T04:59:42.437Z,53.26
2024-05-09T05:00:42.604Z,54.36
2024-05-09T05:01:42.590Z,55.11
2024-05-09T05:02:42.766Z,53.61
2024-05-09T05:03:42.911Z,56.15
2024-05-09T05:04:42.878Z,57.44
2024-05-09T05:05:43.413Z,55.87
2024-05-09T05:06:42.858Z,55.71
2024-05-09T05:07:42.899Z,57.09
2024-05-09T05:08:43.005Z,61.04
2024-05-09T05:09:42.996Z,64.67
2024-05-09T05:10:43.084Z,64.69
2024-05-09T05:11:43.170Z,66.55
2024-05-09T05:12:43.111Z,68.58
2024-05-09T05:13:43.182Z,71.38
2024-05-09T05:14:43.205Z,75.24
2024-05-09T05:15:43.252Z,77.18
2024-05-09T05:16:43.285Z,79.65
2024-05-09T05:17:43.596Z,78.17
2024-05-09T05:18:43.457Z,80.49
2024-05-09T05:19:43.603Z,80.89
2024-05-09T05:20:43.632Z,83.60
2024-05-09T05:21:43.567Z,84.74
2024-05-09T05:22:43.599Z,86.35
2024-05-09T05:23:43.659Z,89.55
2024-05-09T05:24:43.633Z,88.88
2024-05-09T05:25:43.730Z,88.99
2024-05-09T05:26:43.713Z,89.38
2024-05-09T05:27:43.703Z,91.13
2024-05-09T05:28:43.714Z,93.76
2024-05-09T05:29:43.839Z,94.35
2024-05-09T05:30:43.850Z,95.77
2024-05-09T05:31:43.932Z,97.05
2024-05-09T05:32:44.088Z,97.03
2024-05-09T05:33:44.063Z,97.49
2024-05-09T05:34:44.043Z,98.68
2024-05-09T05:35:44.112Z,99.96
2024-05-09T05:36:44.081Z,101.95
2024-05-09T05:37:44.157Z,103.94
2024-05-09T05:38:44.306Z,104.15
2024-05-09T05:39:44.172Z,104.88
2024-05-09T05:40:44.335Z,105.16
2024-05-09T05:41:44.287Z,106.23
2024-05-09T05:42:44.300Z,106.49
2024-05-09T05:43:44.449Z,105.51
2024-05-09T05:44:44.354Z,105.91
2024-05-09T05:45:44.442Z,106.37
2024-05-09T05:46:44.509Z,106.02
2024-05-09T05:47:44.780Z,103.29
2024-05-09T05:48:44.599Z,103.01
2024-05-09T05:49:44.514Z,104.05
2024-05-09T05:50:44.676Z,106.41
2024-05-09T05:51:44.625Z,108.39
2024-05-09T05:52:44.762Z,107.78
2024-05-09T05:53:44.774Z,108.39
2024-05-09T05:54:44.727Z,106.03
2024-05-09T05:55:44.836Z,106.65
2024-05-09T05:56:44.912Z,107.71
2024-05-09T05:57:44.906Z,107.73
2024-05-09T05:58:45.145Z,107.89
2024-05-09T05:59:45.061Z,102.78
2024-05-09T06:00:45.218Z,99.17
2024-05-09T06:01:45.159Z,96.56
2024-05-09T06:02:45.327Z,97.92
2024-05-09T06:03:45.304Z,95.88
2024-05-09T06:04:45.366Z,95.96
2024-05-09T06:05:45.270Z,93.48
2024-05-09T06:06:45.332Z,94.29
2024-05-09T06:07:45.403Z,90.60
2024-05-09T06:08:45.510Z,89.49
2024-05-09T06:09:47.611Z,86.38
2024-05-09T06:10:45.514Z,86.57
2024-05-09T06:11:45.603Z,83.17
2024-05-09T06:12:45.447Z,79.10
2024-05-09T06:13:45.506Z,75.04
2024-05-09T06:14:45.419Z,71.51
2024-05-09T06:15:45.431Z,66.75
2024-05-09T06:16:45.465Z,61.66
2024-05-09T06:17:45.743Z,62.65
2024-05-09T06:18:45.563Z,59.70
2024-05-09T06:19:45.587Z,57.11
2024-05-09T06:20:45.486Z,62.58
2024-05-09T06:21:45.453Z,63.18
2024-05-09T06:22:45.441Z,65.04
2024-05-09T06:23:45.494Z,65.13
2024-05-09T06:24:45.449Z,65.84
2024-05-09T06:25:45.471Z,63.80
2024-05-09T06:26:45.440Z,61.07
2024-05-09T06:27:45.530Z,61.11
2024-05-09T06:28:45.499Z,57.83
2024-05-09T06:29:45.448Z,57.60
2024-05-09T06:30:45.493Z,52.41
2024-05-09T06:31:45.530Z,51.21
2024-05-09T06:32:45.567Z,52.20
2024-05-09T06:33:45.585Z,51.82
2024-05-09T06:34:45.628Z,51.22
2024-05-09T06:35:45.542Z,51.42
2024-05-09T06:36:45.463Z,50.89
2024-05-09T06:37:45.486Z,51.21
2024-05-09T06:38:45.539Z,52.71
2024-05-09T06:39:45.471Z,52.08
2024-05-09T06:40:45.786Z,50.00
2024-05-09T06:41:45.463Z,51.67
2024-05-09T06:42:45.474Z,50.00
2024-05-09T06:43:45.540Z,50.00
2024-05-09T06:44:45.525Z,51.76
2024-05-09T06:45:45.486Z,51.40
2024-05-09T06:46:45.714Z,50.56
2024-05-09T06:47:45.568Z,50.29
2024-05-09T06:48:45.849Z,51.39
2024-05-09T06:49:45.547Z,50.00
2024-05-09T06:50:45.622Z,50.85
2024-05-09T06:51:45.484Z,50.00
2024-05-09T06:52:45.554Z,52.79
2024-05-09T06:53:45.613Z,50.83
2024-05-09T06:54:45.624Z,50.87
2024-05-09T06:55:45.729Z,50.82
2024-05-09T06:56:45.682Z,50.00
2024-05-09T06:57:45.688Z,50.43
2024-05-09T06:58:45.780Z,50.44
2024-05-09T06:59:45.774Z,55.63
2024-05-09T07:00:45.911Z,63.93
2024-05-09T07:01:45.938Z,72.70
2024-05-09T07:02:46.068Z,81.23
2024-05-09T07:03:46.085Z,88.17
2024-05-09T07:04:46.100Z,94.50
2024-05-09T07:05:47.084Z,94.72
2024-05-09T07:06:46.107Z,92.54
2024-05-09T07:07:46.264Z,91.67
2024-05-09T07:08:47.409Z,92.51
2024-05-09T07:09:46.304Z,93.34
2024-05-09T07:10:46.586Z,94.90
2024-05-09T07:11:46.518Z,95.59
2024-05-09T07:12:46.462Z,92.99
2024-05-09T07:13:46.527Z,92.12
2024-05-09T07:14:46.606Z,91.29
2024-05-09T07:15:46.542Z,90.08
2024-05-09T07:16:46.702Z,92.78
2024-05-09T07:17:46.821Z,93.29
2024-05-09T07:18:46.920Z,96.18
2024-05-09T07:19:46.856Z,98.80
2024-05-09T07:20:47.394Z,102.47
2024-05-09T07:21:46.886Z,102.50
2024-05-09T07:22:46.925Z,98.13
2024-05-09T07:23:47.551Z,91.97
2024-05-09T07:24:47.064Z,86.85
2024-05-09T07:25:47.332Z,83.98
2024-05-09T07:26:47.217Z,78.43
2024-05-09T07:27:47.236Z,75.00
2024-05-09T07:28:47.327Z,69.50
2024-05-09T07:29:47.406Z,64.66
2024-05-09T07:30:47.354Z,63.43
2024-05-09T07:31:47.409Z,65.68
2024-05-09T07:32:47.853Z,64.93
2024-05-09T07:33:47.522Z,62.14
2024-05-09T07:34:47.502Z,61.77
2024-05-09T07:35:47.590Z,61.40
2024-05-09T07:36:47.548Z,58.63
2024-05-09T07:37:47.621Z,61.47
2024-05-09T07:38:47.732Z,60.15
2024-05-09T07:39:47.688Z,60.91
2024-05-09T07:40:47.838Z,56.34
2024-05-09T07:41:47.810Z,51.26
2024-05-09T07:42:47.832Z,51.43
2024-05-09T07:43:47.891Z,50.43
2024-05-09T07:44:47.937Z,50.00
2024-05-09T07:45:53.093Z,50.29
2024-05-09T07:47:48.786Z,49.09
2024-05-09T07:49:13.626Z,46.50
2024-05-09T07:53:17.300Z,44.09
2024-05-09T07:53:34.820Z,47.21
2024-05-09T07:53:52.210Z,50.32
2024-05-09T07:54:49.276Z,48.96
2024-05-09T07:55:48.059Z,39.18
2024-05-09T07:56:48.079Z,25.90
2024-05-09T07:57:48.027Z,16.85
2024-05-09T07:58:47.975Z,9.82
2024-05-09T07:59:47.976Z,24.27
2024-05-09T08:00:48.176Z,37.57
2024-05-09T08:01:48.059Z,50.00
2024-05-09T08:02:48.048Z,50.00
2024-05-09T08:03:48.195Z,51.61
2024-05-09T08:04:48.164Z,50.00
2024-05-09T08:05:48.032Z,50.00
2024-05-09T08:06:48.068Z,50.00
2024-05-09T08:07:48.012Z,50.81
2024-05-09T08:08:47.987Z,51.21
2024-05-09T08:09:48.025Z,52.58
2024-05-09T08:10:48.066Z,53.76
2024-05-09T08:11:48.024Z,56.80
2024-05-09T08:12:48.037Z,59.25
2024-05-09T08:13:48.044Z,54.09
2024-05-09T08:14:47.995Z,51.17
2024-05-09T08:15:48.055Z,52.07
2024-05-09T08:16:48.044Z,51.68
2024-05-09T08:17:48.115Z,50.42
2024-05-09T08:18:48.094Z,51.38
2024-05-09T08:19:48.083Z,52.07
2024-05-09T08:20:48.012Z,53.30
2024-05-09T08:21:48.053Z,49.41
2024-05-09T08:22:48.037Z,53.66
2024-05-09T08:23:48.018Z,56.67
2024-05-09T08:24:48.059Z,59.93
2024-05-09T08:25:48.120Z,58.59
2024-05-09T08:26:48.146Z,57.55
2024-05-09T08:27:48.176Z,61.24
2024-05-09T08:28:48.186Z,64.27
2024-05-09T08:29:48.267Z,67.31
2024-05-09T08:30:48.563Z,70.48
2024-05-09T08:31:48.390Z,62.18
2024-05-09T08:32:48.541Z,64.05
2024-05-09T08:33:48.756Z,62.91
2024-05-09T08:34:48.425Z,58.91
2024-05-09T08:35:48.425Z,51.69
2024-05-09T08:36:48.502Z,58.23
2024-05-09T08:37:48.578Z,50.09
2024-05-09T08:38:48.545Z,50.00
2024-05-09T08:39:48.683Z,52.11
2024-05-09T08:40:48.776Z,52.72
2024-05-09T08:41:48.664Z,50.15
2024-05-09T08:42:48.792Z,52.00
2024-05-09T08:43:48.763Z,55.37
2024-05-09T08:44:48.846Z,51.54
2024-05-09T08:45:48.868Z,51.95
2024-05-09T08:46:48.880Z,58.25
2024-05-09T08:47:48.924Z,63.10
2024-05-09T08:48:49.063Z,59.56
2024-05-09T08:49:49.042Z,55.54
2024-05-09T08:50:49.164Z,50.00
2024-05-09T08:51:49.146Z,50.00
2024-05-09T08:52:49.192Z,50.00
2024-05-09T08:53:49.263Z,50.33
2024-05-09T08:54:49.338Z,50.00
2024-05-09T08:55:49.323Z,55.74
2024-05-09T08:56:49.376Z,58.69
2024-05-09T08:57:49.465Z,58.32
2024-05-09T08:58:49.571Z,72.39
2024-05-09T08:59:49.519Z,78.37
2024-05-09T09:00:49.996Z,73.54
2024-05-09T09:01:49.684Z,70.20
2024-05-09T09:02:49.754Z,74.62
2024-05-09T09:03:49.870Z,74.79
2024-05-09T09:04:50.136Z,73.00
2024-05-09T09:05:49.823Z,72.85
2024-05-09T09:06:49.896Z,70.02
2024-05-09T09:07:49.955Z,71.20
2024-05-09T09:08:49.948Z,73.44
2024-05-09T09:09:50.027Z,70.36
2024-05-09T09:10:50.092Z,58.79
2024-05-09T09:11:50.140Z,51.47
2024-05-09T09:12:50.197Z,53.37
2024-05-09T09:13:50.167Z,51.90
2024-05-09T09:14:50.174Z,50.00
2024-05-09T09:15:50.351Z,51.55
2024-05-09T09:16:50.273Z,50.30
2024-05-09T09:17:50.450Z,50.00
2024-05-09T09:18:50.588Z,48.82
2024-05-09T09:19:50.442Z,35.88
2024-05-09T09:20:50.497Z,30.57
2024-05-09T09:21:50.623Z,45.23
2024-05-09T09:22:50.567Z,50.69
2024-05-09T09:23:50.586Z,52.20
2024-05-09T09:24:50.653Z,60.03
2024-05-09T09:25:50.803Z,59.15
2024-05-09T09:26:50.721Z,62.12
2024-05-09T09:27:50.827Z,59.94
2024-05-09T09:28:50.855Z,50.00
2024-05-09T09:29:50.903Z,50.00
2024-05-09T09:30:51.080Z,51.50
2024-05-09T09:31:51.350Z,54.38
2024-05-09T09:32:51.073Z,55.36
2024-05-09T09:33:51.306Z,56.66
2024-05-09T09:34:51.127Z,63.73
2024-05-09T09:35:51.104Z,67.55
2024-05-09T09:36:51.226Z,71.49
2024-05-09T09:37:51.192Z,69.55
2024-05-09T09:38:51.263Z,67.25
2024-05-09T09:39:51.341Z,65.34
2024-05-09T09:40:51.485Z,62.20
2024-05-09T09:41:51.410Z,55.89
2024-05-09T09:42:51.564Z,54.75
2024-05-09T09:43:51.554Z,57.63
2024-05-09T09:45:01.824Z,75.78
2024-05-09T09:45:53.528Z,76.06
2024-05-09T09:46:51.635Z,78.85
2024-05-09T09:47:51.718Z,86.16
2024-05-09T09:48:51.788Z,95.92
2024-05-09T09:49:51.723Z,110.09
2024-05-09T09:50:51.740Z,112.37
2024-05-09T09:51:51.774Z,113.56
2024-05-09T09:52:51.734Z,114.49
2024-05-09T09:53:51.769Z,126.17
2024-05-09T09:54:51.938Z,130.23
2024-05-09T09:55:51.865Z,128.69
2024-05-09T09:56:51.946Z,125.87
2024-05-09T09:57:52.075Z,119.30
2024-05-09T09:58:52.008Z,117.51
2024-05-09T09:59:52.056Z,114.07
2024-05-09T10:00:52.212Z,110.39
2024-05-09T10:01:52.229Z,113.46
2024-05-09T10:02:52.249Z,116.33
2024-05-09T10:03:52.458Z,112.42
2024-05-09T10:04:52.412Z,115.39
2024-05-09T10:05:52.385Z,114.28
2024-05-09T10:06:52.368Z,110.67
2024-05-09T10:07:52.389Z,106.49
2024-05-09T10:08:52.446Z,101.19
2024-05-09T10:09:52.469Z,100.99
2024-05-09T10:10:52.778Z,98.43
2024-05-09T10:11:59.575Z,89.81
2024-05-09T10:12:53.603Z,89.85
2024-05-09T10:13:52.535Z,89.81
2024-05-09T10:14:52.564Z,90.28
2024-05-09T10:15:52.931Z,86.43
2024-05-09T10:16:52.560Z,84.19
2024-05-09T10:17:52.673Z,86.00
2024-05-09T10:18:52.825Z,81.47
2024-05-09T10:19:52.723Z,81.71
2024-05-09T10:20:52.558Z,77.66
2024-05-09T10:21:52.631Z,75.89
2024-05-09T10:22:52.540Z,77.71
2024-05-09T10:23:52.581Z,71.97
2024-05-09T10:24:52.627Z,67.44
2024-05-09T10:25:52.575Z,70.18
2024-05-09T10:26:52.554Z,71.67
2024-05-09T10:27:52.566Z,70.88
2024-05-09T10:28:52.591Z,66.54
2024-05-09T10:29:52.580Z,63.09
2024-05-09T10:30:52.639Z,60.06
2024-05-09T10:31:52.658Z,58.33
2024-05-09T10:32:52.753Z,61.54
2024-05-09T10:33:53.320Z,67.21
2024-05-09T10:34:52.758Z,74.19
2024-05-09T10:35:52.753Z,70.00
2024-05-09T10:36:52.884Z,72.46
2024-05-09T10:37:52.951Z,73.76
2024-05-09T10:38:52.979Z,74.54
2024-05-09T10:39:53.106Z,76.66
2024-05-09T10:40:53.076Z,79.24
2024-05-09T10:41:53.118Z,80.55
2024-05-09T10:42:53.186Z,78.10
2024-05-09T10:43:53.238Z,73.39
2024-05-09T10:44:53.264Z,65.99
2024-05-09T10:45:53.486Z,66.83
2024-05-09T10:46:53.425Z,71.65
2024-05-09T10:47:53.552Z,74.80
2024-05-09T10:48:53.666Z,79.34
2024-05-09T10:49:53.742Z,76.14
2024-05-09T10:50:53.632Z,74.10
2024-05-09T10:51:53.746Z,72.56
2024-05-09T10:52:53.744Z,72.60
2024-05-09T10:53:53.791Z,66.56
2024-05-09T10:54:53.850Z,54.63
2024-05-09T10:55:53.868Z,32.16
2024-05-09T10:56:53.901Z,43.29
2024-05-09T10:57:53.986Z,52.63
2024-05-09T10:58:53.942Z,56.39
2024-05-09T10:59:53.970Z,63.96
2024-05-09T11:00:54.163Z,63.12
2024-05-09T11:01:54.230Z,60.62
2024-05-09T11:02:54.188Z,60.11
2024-05-09T11:03:54.411Z,65.84
2024-05-09T11:04:54.283Z,68.58
2024-05-09T11:05:54.338Z,78.37
2024-05-09T11:06:54.376Z,78.07
2024-05-09T11:07:54.354Z,78.07
2024-05-09T11:08:54.388Z,73.49
2024-05-09T11:09:54.452Z,75.08
2024-05-09T11:10:54.546Z,76.23
2024-05-09T11:11:54.554Z,77.18
2024-05-09T11:12:54.533Z,65.83
2024-05-09T11:13:54.528Z,50.00
2024-05-09T11:14:54.546Z,50.81
2024-05-09T11:15:54.782Z,51.74
2024-05-09T11:16:54.604Z,51.42
2024-05-09T11:17:54.787Z,55.65
2024-05-09T11:18:55.110Z,57.28
2024-05-09T11:19:54.812Z,67.50
2024-05-09T11:20:54.787Z,71.56
2024-05-09T11:21:54.853Z,64.15
2024-05-09T11:23:11.903Z,50.00
2024-05-09T11:24:11.971Z,50.00
2024-05-09T11:25:12.013Z,50.00
2024-05-09T11:26:11.888Z,50.00
2024-05-09T11:27:11.947Z,50.00
2024-05-09T11:28:11.997Z,50.16
2024-05-09T11:29:12.244Z,53.86
2024-05-09T11:30:20.828Z,49.84
2024-05-09T11:31:12.951Z,42.54
2024-05-09T11:32:11.998Z,36.27
2024-05-09T11:33:11.982Z,28.95
2024-05-09T11:34:11.969Z,13.48
2024-05-09T11:35:11.915Z,14.04
2024-05-09T11:36:11.915Z,48.49
2024-05-09T11:37:12.041Z,53.39
2024-05-09T11:38:11.943Z,54.70
2024-05-09T11:39:11.953Z,51.32
2024-05-09T11:40:20.733Z,55.81
2024-05-09T11:41:12.950Z,54.95
2024-05-09T11:42:11.971Z,56.19
2024-05-09T11:43:12.132Z,58.19
2024-05-09T11:44:11.937Z,63.36
2024-05-09T11:45:11.956Z,73.26
2024-05-09T11:46:12.119Z,76.39
2024-05-09T11:47:12.006Z,76.18
2024-05-09T11:48:12.046Z,62.80
2024-05-09T11:49:12.195Z,60.27
2024-05-09T11:50:19.139Z,50.50
2024-05-09T11:51:12.974Z,49.35
2024-05-09T11:52:12.034Z,51.08
2024-05-09T11:53:11.979Z,55.18
2024-05-09T11:54:12.006Z,57.53
2024-05-09T11:55:12.014Z,45.74
2024-05-09T11:56:12.023Z,58.64
2024-05-09T11:57:11.980Z,67.99
2024-05-09T11:58:12.060Z,82.98
2024-05-09T11:59:11.993Z,82.32
2024-05-09T12:00:14.934Z,68.04
2024-05-09T12:01:13.075Z,68.36
2024-05-09T12:02:12.143Z,71.38
2024-05-09T12:03:12.038Z,78.76
2024-05-09T12:04:12.258Z,90.48
2024-05-09T12:05:12.122Z,91.37
2024-05-09T12:06:12.053Z,85.86
2024-05-09T12:07:13.130Z,92.60
2024-05-09T12:08:12.014Z,111.20
2024-05-09T12:09:12.004Z,112.90
2024-05-09T12:10:16.794Z,110.21
2024-05-09T12:11:13.142Z,110.53
2024-05-09T12:12:12.014Z,112.87
2024-05-09T12:13:12.057Z,117.71
2024-05-09T12:14:12.050Z,124.78
2024-05-09T12:15:12.036Z,138.98
2024-05-09T12:16:12.077Z,144.73
2024-05-09T12:17:12.085Z,143.11
2024-05-09T12:18:12.085Z,127.23
2024-05-09T12:19:12.104Z,106.74
2024-05-09T12:20:20.943Z,95.68
2024-05-09T12:21:13.037Z,95.79
2024-05-09T12:22:12.136Z,97.42
2024-05-09T12:23:12.099Z,104.85
2024-05-09T12:24:14.438Z,123.51
2024-05-09T12:25:12.094Z,143.87
2024-05-09T12:26:12.057Z,140.86
2024-05-09T12:27:12.104Z,136.06
2024-05-09T12:28:12.135Z,136.63
2024-05-09T12:29:12.066Z,138.93
2024-05-09T12:30:20.741Z,142.25
2024-05-09T12:31:13.090Z,142.58
2024-05-09T12:32:12.088Z,145.51
2024-05-09T12:33:13.082Z,147.87
2024-05-09T12:34:12.280Z,154.11
2024-05-09T12:35:12.060Z,162.04
2024-05-09T12:36:12.074Z,162.74
2024-05-09T12:37:12.150Z,163.51
2024-05-09T12:38:12.080Z,163.60
2024-05-09T12:39:12.088Z,166.97
2024-05-09T12:41:12.096Z,167.39
2024-05-09T12:42:16.620Z,168.77
2024-05-09T12:43:13.144Z,168.44
2024-05-09T12:44:12.125Z,169.11
2024-05-09T12:45:12.099Z,164.89
2024-05-09T12:46:12.166Z,167.76
2024-05-09T12:47:12.107Z,168.24
2024-05-09T12:48:12.957Z,166.54
2024-05-09T12:49:13.760Z,155.77
2024-05-09T12:51:12.129Z,162.06
2024-05-09T12:52:12.129Z,172.46
2024-05-09T12:53:12.105Z,169.12
2024-05-09T12:54:12.129Z,172.27